CheckWX is a tool to help pilots better visualize weather data.  It is not intended as a substitute for an official pre-flight weather briefing.

13:21:15 UTC

CYYL TAF
Lynn Lake Airport
Lynn Lake, Canada
TAF CYYL 181238Z 1813/1901 04005KT P6SM -RA SCT012 OVC030 TEMPO 1813/1901 2SM -SHRA BR BKN008 OVC012 BECMG 1822/1824 36010KT RMK FCST BASED ON AUTO OBS. NXT FCST BY 181900Z

Aug-18@
13:00 UTC

Aug-18 @ 13:00 UTC

Aug-18@
22:00 UTC

Aug-18 @ 22:00 UTC

TAF CYYL 181238Z 1813/1901 04005KT P6SM -RA SCT012 OVC030
Wind
  • 040° at 5 KTS
Conditions
Light Rain
Cloud Levels
  • Scattered at 1,200' AGL
  • Overcast at 3,000' AGL

Aug-18@
13:00 UTC

Aug-18 @ 13:00 UTC

Aug-19@
01:00 UTC

Aug-19 @ 01:00 UTC

TEMPO 1813/1901 2SM -SHRA BR BKN008 OVC012

Temporary

Temporary Changes expected for less than half the time period

Conditions
Light Rain, Mist
Cloud Levels
  • Broken at 800' AGL
  • Overcast at 1,200' AGL

Aug-18@
22:00 UTC

Aug-18 @ 22:00 UTC

Aug-19@
01:00 UTC

Aug-19 @ 01:00 UTC

BECMG 1822/1824 36010KT RMK FCST BASED ON AUTO OBS. NXT FCST BY 181900Z

Becoming

Becoming Conditions expected by Mon, Aug 19, 2019 @ 00:00 UTC

Wind
  • 360° at 10 KTS
Conditions
Light Rain
Cloud Levels
  • Scattered at 1,200' AGL
  • Overcast at 3,000' AGL